sensor_id;sensor_type;location;lat;lon;timestamp;pressure;altitude;pressure_sealevel;temperature;humidity
17772;BME280;9010;32.624;-96.938;2022-09-01T00:02:12;99156.25;;;27.77;100.00
17772;BME280;9010;32.624;-96.938;2022-09-01T00:04:42;99162.06;;;27.74;100.00
17772;BME280;9010;32.624;-96.938;2022-09-01T00:07:11;99165.38;;;27.76;100.00
17772;BME280;9010;32.624;-96.938;2022-09-01T00:09:40;99170.53;;;27.71;100.00
17772;BME280;9010;32.624;-96.938;2022-09-01T00:12:09;99178.84;;;27.69;100.00
17772;BME280;9010;32.624;-96.938;2022-09-01T00:14:39;99170.03;;;27.61;100.00
17772;BME280;9010;32.624;-96.938;2022-09-01T00:17:11;99170.19;;;27.59;100.00
17772;BME280;9010;32.624;-96.938;2022-09-01T00:19:39;99178.69;;;27.56;100.00
17772;BME280;9010;32.624;-96.938;2022-09-01T00:22:08;99174.50;;;27.54;100.00
17772;BME280;9010;32.624;-96.938;2022-09-01T00:24:36;99167.16;;;27.48;100.00
17772;BME280;9010;32.624;-96.938;2022-09-01T00:27:04;99170.88;;;27.47;100.00
17772;BME280;9010;32.624;-96.938;2022-09-01T00:29:33;99161.31;;;27.44;100.00
17772;BME280;9010;32.624;-96.938;2022-09-01T00:32:01;99169.19;;;27.46;100.00
17772;BME280;9010;32.624;-96.938;2022-09-01T00:34:31;99165.88;;;27.44;100.00
17772;BME280;9010;32.624;-96.938;2022-09-01T00:37:00;99168.75;;;27.42;100.00
17772;BME280;9010;32.624;-96.938;2022-09-01T00:39:28;99170.78;;;27.40;100.00
17772;BME280;9010;32.624;-96.938;2022-09-01T00:41:56;99176.53;;;27.37;100.00
17772;BME280;9010;32.624;-96.938;2022-09-01T00:44:25;99180.84;;;27.31;100.00
17772;BME280;9010;32.624;-96.938;2022-09-01T00:46:54;99188.09;;;27.31;100.00
17772;BME280;9010;32.624;-96.938;2022-09-01T00:49:28;99184.28;;;27.25;100.00
17772;BME280;9010;32.624;-96.938;2022-09-01T00:52:04;99189.53;;;27.12;100.00
17772;BME280;9010;32.624;-96.938;2022-09-01T00:54:36;99188.69;;;27.12;100.00
17772;BME280;9010;32.624;-96.938;2022-09-01T00:57:08;99198.16;;;27.08;100.00
17772;BME280;9010;32.624;-96.938;2022-09-01T00:59:42;99193.06;;;27.13;100.00
17772;BME280;9010;32.624;-96.938;2022-09-01T01:02:11;99194.91;;;27.12;100.00
17772;BME280;9010;32.624;-96.938;2022-09-01T01:04:39;99192.75;;;27.08;100.00
17772;BME280;9010;32.624;-96.938;2022-09-01T01:07:11;99194.81;;;27.06;100.00
17772;BME280;9010;32.624;-96.938;2022-09-01T01:09:43;99199.75;;;27.02;100.00
17772;BME280;9010;32.624;-96.938;2022-09-01T01:12:12;99203.50;;;27.01;100.00
17772;BME280;9010;32.624;-96.938;2022-09-01T01:14:44;99207.19;;;27.00;100.00
17772;BME280;9010;32.624;-96.938;2022-09-01T01:17:15;99211.13;;;26.98;100.00
17772;BME280;9010;32.624;-96.938;2022-09-01T01:19:46;99210.63;;;26.94;100.00
17772;BME280;9010;32.624;-96.938;2022-09-01T01:22:40;99213.69;;;26.91;100.00
17772;BME280;9010;32.624;-96.938;2022-09-01T01:25:34;99211.19;;;26.90;100.00
17772;BME280;9010;32.624;-96.938;2022-09-01T01:28:06;99215.75;;;26.89;100.00
17772;BME280;9010;32.624;-96.938;2022-09-01T01:30:35;99215.97;;;26.88;100.00
17772;BME280;9010;32.624;-96.938;2022-09-01T01:33:05;99217.81;;;26.87;100.00
17772;BME280;9010;32.624;-96.938;2022-09-01T01:35:34;99226.91;;;26.86;100.00
17772;BME280;9010;32.624;-96.938;2022-09-01T01:38:03;99233.03;;;26.80;100.00
17772;BME280;9010;32.624;-96.938;2022-09-01T01:40:36;99232.03;;;26.81;100.00
17772;BME280;9010;32.624;-96.938;2022-09-01T01:43:05;99238.44;;;26.80;100.00
17772;BME280;9010;32.624;-96.938;2022-09-01T01:45:33;99240.47;;;26.78;100.00
17772;BME280;9010;32.624;-96.938;2022-09-01T01:48:02;99242.19;;;26.79;100.00
17772;BME280;9010;32.624;-96.938;2022-09-01T01:50:34;99241.13;;;26.80;100.00
17772;BME280;9010;32.624;-96.938;2022-09-01T01:53:06;99234.78;;;26.73;100.00
17772;BME280;9010;32.624;-96.938;2022-09-01T01:55:36;99245.53;;;26.81;100.00
17772;BME280;9010;32.624;-96.938;2022-09-01T01:58:04;99255.13;;;26.83;100.00
17772;BME280;9010;32.624;-96.938;2022-09-01T02:00:33;99254.28;;;26.83;100.00
17772;BME280;9010;32.624;-96.938;2022-09-01T02:03:02;99255.59;;;26.87;100.00
17772;BME280;9010;32.624;-96.938;2022-09-01T02:05:31;99262.19;;;26.85;100.00
17772;BME280;9010;32.624;-96.938;2022-09-01T02:08:03;99259.31;;;26.86;100.00
17772;BME280;9010;32.624;-96.938;2022-09-01T02:10:33;99256.81;;;26.85;100.00
17772;BME280;9010;32.624;-96.938;2022-09-01T02:13:05;99258.66;;;26.84;100.00
17772;BME280;9010;32.624;-96.938;2022-09-01T02:15:35;99265.06;;;26.83;100.00
17772;BME280;9010;32.624;-96.938;2022-09-01T02:18:08;99264.06;;;26.84;100.00
17772;BME280;9010;32.624;-96.938;2022-09-01T02:20:36;99260.50;;;26.83;100.00
17772;BME280;9010;32.624;-96.938;2022-09-01T02:23:06;99255.13;;;26.83;100.00
17772;BME280;9010;32.624;-96.938;2022-09-01T02:25:37;99259.66;;;26.83;100.00
17772;BME280;9010;32.624;-96.938;2022-09-01T02:28:12;99258.38;;;26.79;100.00
17772;BME280;9010;32.624;-96.938;2022-09-01T02:30:41;99267.13;;;26.81;100.00
17772;BME280;9010;32.624;-96.938;2022-09-01T02:33:10;99262.06;;;26.78;100.00
17772;BME280;9010;32.624;-96.938;2022-09-01T02:35:44;99264.09;;;26.76;100.00
17772;BME280;9010;32.624;-96.938;2022-09-01T02:38:12;99260.44;;;26.69;100.00
17772;BME280;9010;32.624;-96.938;2022-09-01T02:40:43;99257.25;;;26.65;100.00
17772;BME280;9010;32.624;-96.938;2022-09-01T02:43:15;99266.84;;;26.68;100.00
17772;BME280;9010;32.624;-96.938;2022-09-01T02:45:44;99260.81;;;26.66;100.00
17772;BME280;9010;32.624;-96.938;2022-09-01T02:48:13;99273.00;;;26.62;100.00
17772;BME280;9010;32.624;-96.938;2022-09-01T02:50:41;99267.13;;;26.58;100.00
17772;BME280;9010;32.624;-96.938;2022-09-01T02:53:09;99267.63;;;26.54;100.00
17772;BME280;9010;32.624;-96.938;2022-09-01T02:55:41;99264.28;;;26.52;100.00
17772;BME280;9010;32.624;-96.938;2022-09-01T02:58:09;99267.72;;;26.46;100.00
17772;BME280;9010;32.624;-96.938;2022-09-01T03:00:43;99259.31;;;26.41;100.00
17772;BME280;9010;32.624;-96.938;2022-09-01T03:03:12;99265.94;;;26.38;100.00
17772;BME280;9010;32.624;-96.938;2022-09-01T03:05:43;99258.00;;;26.37;100.00
17772;BME280;9010;32.624;-96.938;2022-09-01T03:08:11;99263.47;;;26.28;100.00
17772;BME280;9010;32.624;-96.938;2022-09-01T03:10:43;99264.38;;;26.21;100.00
17772;BME280;9010;32.624;-96.938;2022-09-01T03:13:14;99267.94;;;26.13;100.00
17772;BME280;9010;32.624;-96.938;2022-09-01T03:15:45;99268.63;;;26.07;100.00
17772;BME280;9010;32.624;-96.938;2022-09-01T03:18:14;99262.53;;;26.13;100.00
17772;BME280;9010;32.624;-96.938;2022-09-01T03:20:45;99267.94;;;26.13;100.00
17772;BME280;9010;32.624;-96.938;2022-09-01T03:23:18;99269.34;;;26.01;100.00
17772;BME280;9010;32.624;-96.938;2022-09-01T03:25:47;99261.81;;;25.97;100.00
17772;BME280;9010;32.624;-96.938;2022-09-01T03:28:15;99257.59;;;25.94;100.00
17772;BME280;9010;32.624;-96.938;2022-09-01T03:30:47;99264.31;;;25.98;100.00
17772;BME280;9010;32.624;-96.938;2022-09-01T03:33:16;99263.47;;;25.98;100.00
17772;BME280;9010;32.624;-96.938;2022-09-01T03:35:46;99268.38;;;25.94;100.00
17772;BME280;9010;32.624;-96.938;2022-09-01T03:38:15;99267.06;;;25.90;100.00
17772;BME280;9010;32.624;-96.938;2022-09-01T03:40:47;99270.75;;;25.89;100.00
17772;BME280;9010;32.624;-96.938;2022-09-01T03:43:16;99265.38;;;25.89;100.00
17772;BME280;9010;32.624;-96.938;2022-09-01T03:45:46;99264.53;;;25.89;100.00
17772;BME280;9010;32.624;-96.938;2022-09-01T03:48:15;99257.47;;;25.88;100.00
17772;BME280;9010;32.624;-96.938;2022-09-01T03:50:44;99257.34;;;25.81;100.00
17772;BME280;9010;32.624;-96.938;2022-09-01T03:53:15;99261.88;;;25.81;100.00
17772;BME280;9010;32.624;-96.938;2022-09-01T03:55:45;99252.50;;;25.77;100.00
17772;BME280;9010;32.624;-96.938;2022-09-01T03:58:18;99254.50;;;25.75;100.00
17772;BME280;9010;32.624;-96.938;2022-09-01T04:00:49;99252.34;;;25.70;100.00
17772;BME280;9010;32.624;-96.938;2022-09-01T04:03:21;99246.31;;;25.68;100.00
17772;BME280;9010;32.624;-96.938;2022-09-01T04:05:51;99246.31;;;25.68;100.00
17772;BME280;9010;32.624;-96.938;2022-09-01T04:08:20;99245.97;;;25.71;100.00
17772;BME280;9010;32.624;-96.938;2022-09-01T04:10:57;99244.75;;;25.74;100.00
17772;BME280;9010;32.624;-96.938;2022-09-01T04:13:28;99246.25;;;25.76;100.00
17772;BME280;9010;32.624;-96.938;2022-09-01T04:15:58;99243.22;;;25.79;100.00
17772;BME280;9010;32.624;-96.938;2022-09-01T04:18:27;99245.72;;;25.81;100.00
17772;BME280;9010;32.624;-96.938;2022-09-01T04:20:56;99230.75;;;25.78;100.00
17772;BME280;9010;32.624;-96.938;2022-09-01T04:23:25;99238.19;;;25.76;100.00
17772;BME280;9010;32.624;-96.938;2022-09-01T04:25:57;99241.03;;;25.75;100.00
17772;BME280;9010;32.624;-96.938;2022-09-01T04:28:30;99239.38;;;25.74;100.00
17772;BME280;9010;32.624;-96.938;2022-09-01T04:31:02;99236.31;;;25.77;100.00
17772;BME280;9010;32.624;-96.938;2022-09-01T04:33:32;99231.44;;;25.72;100.00
17772;BME280;9010;32.624;-96.938;2022-09-01T04:36:05;99231.63;;;25.70;100.00
17772;BME280;9010;32.624;-96.938;2022-09-01T04:38:35;99234.03;;;25.65;100.00
17772;BME280;9010;32.624;-96.938;2022-09-01T04:41:04;99247.50;;;25.65;100.00
17772;BME280;9010;32.624;-96.938;2022-09-01T04:43:33;99248.72;;;25.55;100.00
17772;BME280;9010;32.624;-96.938;2022-09-01T04:46:03;99240.31;;;25.50;100.00
17772;BME280;9010;32.624;-96.938;2022-09-01T04:48:32;99243.19;;;25.48;100.00
17772;BME280;9010;32.624;-96.938;2022-09-01T04:51:04;99249.91;;;25.52;100.00
17772;BME280;9010;32.624;-96.938;2022-09-01T04:53:33;99257.63;;;25.55;100.00
17772;BME280;9010;32.624;-96.938;2022-09-01T04:56:03;99246.00;;;25.55;100.00
17772;BME280;9010;32.624;-96.938;2022-09-01T04:58:31;99245.00;;;25.56;100.00
17772;BME280;9010;32.624;-96.938;2022-09-01T05:01:00;99247.69;;;25.56;100.00
17772;BME280;9010;32.624;-96.938;2022-09-01T05:03:30;99238.81;;;25.47;100.00
17772;BME280;9010;32.624;-96.938;2022-09-01T05:05:58;99235.94;;;25.49;100.00
17772;BME280;9010;32.624;-96.938;2022-09-01T05:08:29;99234.28;;;25.48;100.00
17772;BME280;9010;32.624;-96.938;2022-09-01T05:11:02;99234.59;;;25.45;100.00
17772;BME280;9010;32.624;-96.938;2022-09-01T05:13:33;99232.59;;;25.39;100.00
17772;BME280;9010;32.624;-96.938;2022-09-01T05:16:06;99238.84;;;25.31;100.00
17772;BME280;9010;32.624;-96.938;2022-09-01T05:18:40;99239.41;;;25.19;100.00
17772;BME280;9010;32.624;-96.938;2022-09-01T05:21:10;99228.97;;;25.15;100.00
17772;BME280;9010;32.624;-96.938;2022-09-01T05:23:40;99233.03;;;25.11;100.00
17772;BME280;9010;32.624;-96.938;2022-09-01T05:26:12;99233.22;;;25.02;100.00
17772;BME280;9010;32.624;-96.938;2022-09-01T05:28:42;99234.06;;;25.02;100.00
17772;BME280;9010;32.624;-96.938;2022-09-01T05:31:10;99223.13;;;25.04;100.00
17772;BME280;9010;32.624;-96.938;2022-09-01T05:33:40;99230.69;;;25.00;100.00
17772;BME280;9010;32.624;-96.938;2022-09-01T05:36:12;99228.00;;;25.00;100.00
17772;BME280;9010;32.624;-96.938;2022-09-01T05:38:41;99232.22;;;24.95;100.00
17772;BME280;9010;32.624;-96.938;2022-09-01T05:41:11;99235.59;;;24.97;100.00
17772;BME280;9010;32.624;-96.938;2022-09-01T05:43:41;99229.53;;;25.03;100.00
17772;BME280;9010;32.624;-96.938;2022-09-01T05:46:13;99233.38;;;25.00;100.00
17772;BME280;9010;32.624;-96.938;2022-09-01T05:48:44;99230.22;;;24.97;100.00
17772;BME280;9010;32.624;-96.938;2022-09-01T05:51:15;99232.38;;;25.01;100.00
17772;BME280;9010;32.624;-96.938;2022-09-01T05:53:45;99228.69;;;24.86;100.00
17772;BME280;9010;32.624;-96.938;2022-09-01T05:56:18;99231.25;;;24.88;100.00
17772;BME280;9010;32.624;-96.938;2022-09-01T05:58:46;99233.59;;;24.91;100.00
17772;BME280;9010;32.624;-96.938;2022-09-01T06:01:16;99237.44;;;24.96;100.00
17772;BME280;9010;32.624;-96.938;2022-09-01T06:03:49;99226.50;;;24.98;100.00
17772;BME280;9010;32.624;-96.938;2022-09-01T06:06:20;99232.91;;;24.97;100.00
17772;BME280;9010;32.624;-96.938;2022-09-01T06:08:49;99235.75;;;24.95;100.00
17772;BME280;9010;32.624;-96.938;2022-09-01T06:11:18;99239.97;;;24.90;100.00
17772;BME280;9010;32.624;-96.938;2022-09-01T06:13:47;99242.69;;;24.82;100.00
17772;BME280;9010;32.624;-96.938;2022-09-01T06:16:17;99239.78;;;24.75;100.00
17772;BME280;9010;32.624;-96.938;2022-09-01T06:18:48;99244.72;;;24.80;100.00
17772;BME280;9010;32.624;-96.938;2022-09-01T06:21:19;99237.16;;;24.83;100.00
17772;BME280;9010;32.624;-96.938;2022-09-01T06:23:47;99234.44;;;24.83;100.00
17772;BME280;9010;32.624;-96.938;2022-09-01T06:26:20;99227.38;;;24.82;100.00
17772;BME280;9010;32.624;-96.938;2022-09-01T06:28:53;99225.34;;;24.84;100.00
17772;BME280;9010;32.624;-96.938;2022-09-01T06:31:22;99222.00;;;24.82;100.00
17772;BME280;9010;32.624;-96.938;2022-09-01T06:33:53;99217.28;;;24.76;100.00
17772;BME280;9010;32.624;-96.938;2022-09-01T06:36:25;99227.84;;;24.78;100.00
17772;BME280;9010;32.624;-96.938;2022-09-01T06:38:53;99215.56;;;24.75;100.00
17772;BME280;9010;32.624;-96.938;2022-09-01T06:41:22;99225.00;;;24.79;100.00
17772;BME280;9010;32.624;-96.938;2022-09-01T06:43:52;99239.13;;;24.73;100.00
17772;BME280;9010;32.624;-96.938;2022-09-01T06:46:21;99237.44;;;24.72;100.00
17772;BME280;9010;32.624;-96.938;2022-09-01T06:48:56;99236.13;;;24.68;100.00
17772;BME280;9010;32.624;-96.938;2022-09-01T06:51:26;99237.63;;;24.63;100.00
17772;BME280;9010;32.624;-96.938;2022-09-01T06:53:56;99239.47;;;24.62;100.00
17772;BME280;9010;32.624;-96.938;2022-09-01T06:56:25;99236.78;;;24.62;100.00
17772;BME280;9010;32.624;-96.938;2022-09-01T06:58:55;99239.81;;;24.67;100.00
17772;BME280;9010;32.624;-96.938;2022-09-01T07:01:24;99235.09;;;24.69;100.00
17772;BME280;9010;32.624;-96.938;2022-09-01T07:03:53;99243.00;;;24.71;100.00
17772;BME280;9010;32.624;-96.938;2022-09-01T07:06:24;99239.47;;;24.70;100.00
17772;BME280;9010;32.624;-96.938;2022-09-01T07:08:55;99235.44;;;24.66;100.00
17772;BME280;9010;32.624;-96.938;2022-09-01T07:11:26;99222.34;;;24.63;100.00
17772;BME280;9010;32.624;-96.938;2022-09-01T07:13:58;99229.72;;;24.69;100.00
17772;BME280;9010;32.624;-96.938;2022-09-01T07:16:27;99217.78;;;24.64;100.00
17772;BME280;9010;32.624;-96.938;2022-09-01T07:18:58;99228.72;;;24.62;100.00
17772;BME280;9010;32.624;-96.938;2022-09-01T07:21:30;99211.94;;;24.60;100.00
17772;BME280;9010;32.624;-96.938;2022-09-01T07:23:58;99216.63;;;24.66;100.00
17772;BME280;9010;32.624;-96.938;2022-09-01T07:26:30;99209.22;;;24.68;100.00
17772;BME280;9010;32.624;-96.938;2022-09-01T07:28:59;99209.22;;;24.68;100.00
17772;BME280;9010;32.624;-96.938;2022-09-01T07:31:30;99201.66;;;24.64;100.00
17772;BME280;9010;32.624;-96.938;2022-09-01T07:34:01;99197.13;;;24.64;100.00
17772;BME280;9010;32.624;-96.938;2022-09-01T07:36:32;99202.50;;;24.64;100.00
17772;BME280;9010;32.624;-96.938;2022-09-01T07:39:03;99200.84;;;24.63;100.00
17772;BME280;9010;32.624;-96.938;2022-09-01T07:41:31;99202.81;;;24.61;100.00
17772;BME280;9010;32.624;-96.938;2022-09-01T07:44:01;99193.75;;;24.62;100.00
17772;BME280;9010;32.624;-96.938;2022-09-01T07:46:30;99194.59;;;24.63;100.00
17772;BME280;9010;32.624;-96.938;2022-09-01T07:49:00;99205.69;;;24.59;100.00
17772;BME280;9010;32.624;-96.938;2022-09-01T07:51:29;99202.84;;;24.53;100.00
17772;BME280;9010;32.624;-96.938;2022-09-01T07:54:00;99198.50;;;24.52;100.00
17772;BME280;9010;32.624;-96.938;2022-09-01T07:56:29;99198.84;;;24.49;100.00
17772;BME280;9010;32.624;-96.938;2022-09-01T07:58:57;99193.28;;;24.50;100.00
17772;BME280;9010;32.624;-96.938;2022-09-01T08:01:27;99182.38;;;24.52;100.00
17772;BME280;9010;32.624;-96.938;2022-09-01T08:03:57;99184.69;;;24.55;100.00
17772;BME280;9010;32.624;-96.938;2022-09-01T08:06:28;99185.38;;;24.57;100.00
17772;BME280;9010;32.624;-96.938;2022-09-01T08:08:58;99185.19;;;24.58;100.00
17772;BME280;9010;32.624;-96.938;2022-09-01T08:11:29;99181.00;;;24.56;100.00
17772;BME280;9010;32.624;-96.938;2022-09-01T08:13:58;99181.66;;;24.58;100.00
17772;BME280;9010;32.624;-96.938;2022-09-01T08:16:29;99178.63;;;24.61;100.00
17772;BME280;9010;32.624;-96.938;2022-09-01T08:18:57;99175.94;;;24.61;100.00
17772;BME280;9010;32.624;-96.938;2022-09-01T08:21:26;99176.78;;;24.62;100.00
17772;BME280;9010;32.624;-96.938;2022-09-01T08:23:54;99182.50;;;24.58;100.00
17772;BME280;9010;32.624;-96.938;2022-09-01T08:26:25;99185.53;;;24.47;100.00
17772;BME280;9010;32.624;-96.938;2022-09-01T08:28:55;99180.34;;;24.54;100.00
17772;BME280;9010;32.624;-96.938;2022-09-01T08:31:24;99180.69;;;24.51;100.00
17772;BME280;9010;32.624;-96.938;2022-09-01T08:33:52;99176.28;;;24.50;100.00
17772;BME280;9010;32.624;-96.938;2022-09-01T08:36:20;99171.63;;;24.52;100.00
17772;BME280;9010;32.624;-96.938;2022-09-01T08:38:49;99181.69;;;24.50;100.00
17772;BME280;9010;32.624;-96.938;2022-09-01T08:41:24;99172.44;;;24.44;100.00
17772;BME280;9010;32.624;-96.938;2022-09-01T08:44:03;99174.28;;;24.44;100.00
17772;BME280;9010;32.624;-96.938;2022-09-01T08:46:36;99173.13;;;24.38;100.00
17772;BME280;9010;32.624;-96.938;2022-09-01T08:49:09;99178.00;;;24.35;100.00
17772;BME280;9010;32.624;-96.938;2022-09-01T08:51:45;99175.00;;;24.38;100.00
17772;BME280;9010;32.624;-96.938;2022-09-01T08:54:21;99184.06;;;24.37;100.00
17772;BME280;9010;32.624;-96.938;2022-09-01T08:56:52;99186.06;;;24.35;100.00
17772;BME280;9010;32.624;-96.938;2022-09-01T08:59:23;99184.53;;;24.32;100.00
17772;BME280;9010;32.624;-96.938;2022-09-01T09:01:58;99184.72;;;24.23;100.00
17772;BME280;9010;32.624;-96.938;2022-09-01T09:04:48;99190.78;;;24.17;100.00
17772;BME280;9010;32.624;-96.938;2022-09-01T09:07:28;99190.09;;;24.23;100.00
17772;BME280;9010;32.624;-96.938;2022-09-01T09:10:04;99196.13;;;24.25;100.00
17772;BME280;9010;32.624;-96.938;2022-09-01T09:12:48;99203.88;;;24.28;100.00
17772;BME280;9010;32.624;-96.938;2022-09-01T09:15:27;99193.63;;;24.23;100.00
17772;BME280;9010;32.624;-96.938;2022-09-01T09:18:08;99180.69;;;24.19;100.00
17772;BME280;9010;32.624;-96.938;2022-09-01T09:20:41;99192.13;;;24.29;100.00
17772;BME280;9010;32.624;-96.938;2022-09-01T09:23:18;99192.13;;;24.29;100.00
17772;BME280;9010;32.624;-96.938;2022-09-01T09:25:49;99188.41;;;24.30;100.00
17772;BME280;9010;32.624;-96.938;2022-09-01T09:28:18;99195.81;;;24.28;100.00
17772;BME280;9010;32.624;-96.938;2022-09-01T09:30:47;99198.16;;;24.31;100.00
17772;BME280;9010;32.624;-96.938;2022-09-01T09:33:34;99204.53;;;24.30;100.00
17772;BME280;9010;32.624;-96.938;2022-09-01T09:36:16;99204.06;;;24.26;100.00
17772;BME280;9010;32.624;-96.938;2022-09-01T09:38:46;99205.56;;;24.29;100.00
17772;BME280;9010;32.624;-96.938;2022-09-01T09:41:16;99205.56;;;24.29;100.00
17772;BME280;9010;32.624;-96.938;2022-09-01T09:43:47;99202.03;;;24.28;100.00
17772;BME280;9010;32.624;-96.938;2022-09-01T09:46:26;99208.59;;;24.26;100.00
17772;BME280;9010;32.624;-96.938;2022-09-01T09:49:11;99205.56;;;24.21;100.00
17772;BME280;9010;32.624;-96.938;2022-09-01T09:51:42;99201.19;;;24.20;100.00
17772;BME280;9010;32.624;-96.938;2022-09-01T09:54:18;99196.31;;;24.23;100.00
17772;BME280;9010;32.624;-96.938;2022-09-01T09:56:48;99196.13;;;24.25;100.00
17772;BME280;9010;32.624;-96.938;2022-09-01T09:59:31;99200.19;;;24.21;100.00
17772;BME280;9010;32.624;-96.938;2022-09-01T10:02:25;99197.13;;;24.24;100.00
17772;BME280;9010;32.624;-96.938;2022-09-01T10:04:54;99201.50;;;24.25;100.00
17772;BME280;9010;32.624;-96.938;2022-09-01T10:07:27;99202.88;;;24.29;100.00
17772;BME280;9010;32.624;-96.938;2022-09-01T10:09:57;99203.22;;;24.26;100.00
17772;BME280;9010;32.624;-96.938;2022-09-01T10:12:27;99200.84;;;24.23;100.00
17772;BME280;9010;32.624;-96.938;2022-09-01T10:15:00;99203.88;;;24.20;100.00
17772;BME280;9010;32.624;-96.938;2022-09-01T10:17:34;99205.38;;;24.14;100.00
17772;BME280;9010;32.624;-96.938;2022-09-01T10:20:05;99211.09;;;24.19;100.00
17772;BME280;9010;32.624;-96.938;2022-09-01T10:22:35;99207.06;;;24.15;100.00
17772;BME280;9010;32.624;-96.938;2022-09-01T10:25:07;99213.25;;;24.16;100.00
17772;BME280;9010;32.624;-96.938;2022-09-01T10:27:38;99207.88;;;24.16;100.00
17772;BME280;9010;32.624;-96.938;2022-09-01T10:30:10;99215.47;;;24.12;100.00
17772;BME280;9010;32.624;-96.938;2022-09-01T10:32:43;99216.75;;;24.08;100.00
17772;BME280;9010;32.624;-96.938;2022-09-01T10:35:16;99225.38;;;24.12;100.00
17772;BME280;9010;32.624;-96.938;2022-09-01T10:37:47;99223.69;;;24.11;100.00
17772;BME280;9010;32.624;-96.938;2022-09-01T10:40:34;99230.88;;;24.10;100.00
17772;BME280;9010;32.624;-96.938;2022-09-01T10:43:22;99231.75;;;24.11;100.00
17772;BME280;9010;32.624;-96.938;2022-09-01T10:45:52;99231.88;;;24.09;100.00
17772;BME280;9010;32.624;-96.938;2022-09-01T10:48:32;99217.94;;;23.97;100.00
17772;BME280;9010;32.624;-96.938;2022-09-01T10:54:06;99241.78;;;24.00;100.00
17772;BME280;9010;32.624;-96.938;2022-09-01T10:56:40;99233.72;;;23.92;100.00
17772;BME280;9010;32.624;-96.938;2022-09-01T10:59:24;99245.47;;;23.99;100.00
17772;BME280;9010;32.624;-96.938;2022-09-01T11:02:12;99254.50;;;23.98;100.00
17772;BME280;9010;32.624;-96.938;2022-09-01T11:05:11;99249.13;;;23.98;100.00
17772;BME280;9010;32.624;-96.938;2022-09-01T11:07:40;99246.97;;;23.94;100.00
17772;BME280;9010;32.624;-96.938;2022-09-01T11:10:39;99244.94;;;23.96;100.00
17772;BME280;9010;32.624;-96.938;2022-09-01T11:13:38;99242.44;;;23.94;100.00
17772;BME280;9010;32.624;-96.938;2022-09-01T11:16:30;99248.66;;;23.95;100.00
17772;BME280;9010;32.624;-96.938;2022-09-01T11:19:26;99249.66;;;23.94;100.00
17772;BME280;9010;32.624;-96.938;2022-09-01T11:22:22;99250.16;;;23.97;100.00
17772;BME280;9010;32.624;-96.938;2022-09-01T11:25:13;99252.84;;;23.97;100.00
17772;BME280;9010;32.624;-96.938;2022-09-01T11:28:04;99250.84;;;23.99;100.00
17772;BME280;9010;32.624;-96.938;2022-09-01T11:30:37;99250.84;;;23.99;100.00
17772;BME280;9010;32.624;-96.938;2022-09-01T11:33:50;99254.50;;;23.98;100.00
17772;BME280;9010;32.624;-96.938;2022-09-01T11:36:28;99246.44;;;23.98;100.00
17772;BME280;9010;32.624;-96.938;2022-09-01T11:39:06;99250.84;;;23.99;100.00
17772;BME280;9010;32.624;-96.938;2022-09-01T11:41:48;99238.41;;;23.98;100.00
17772;BME280;9010;32.624;-96.938;2022-09-01T11:44:23;99238.25;;;24.00;100.00
17772;BME280;9010;32.624;-96.938;2022-09-01T11:46:58;99230.50;;;23.97;100.00
17772;BME280;9010;32.624;-96.938;2022-09-01T11:49:30;99233.34;;;23.95;100.00
17772;BME280;9010;32.624;-96.938;2022-09-01T11:52:00;99231.38;;;23.97;100.00
17772;BME280;9010;32.624;-96.938;2022-09-01T11:54:39;99231.03;;;24.00;100.00
17772;BME280;9010;32.624;-96.938;2022-09-01T11:57:24;99241.78;;;24.00;100.00
17772;BME280;9010;32.624;-96.938;2022-09-01T11:59:53;99239.09;;;24.00;100.00
17772;BME280;9010;32.624;-96.938;2022-09-01T12:02:24;99235.72;;;23.98;100.00
17772;BME280;9010;32.624;-96.938;2022-09-01T12:04:54;99243.59;;;23.92;100.00
17772;BME280;9010;32.624;-96.938;2022-09-01T12:07:36;99246.75;;;23.87;100.00
17772;BME280;9010;32.624;-96.938;2022-09-01T12:10:17;99247.81;;;23.94;100.00
17772;BME280;9010;32.624;-96.938;2022-09-01T12:12:46;99252.50;;;23.92;100.00
17772;BME280;9010;32.624;-96.938;2022-09-01T12:15:19;99245.44;;;23.91;100.00
17772;BME280;9010;32.624;-96.938;2022-09-01T12:17:48;99247.47;;;23.89;100.00
17772;BME280;9010;32.624;-96.938;2022-09-01T12:20:26;99247.28;;;23.91;100.00
17772;BME280;9010;32.624;-96.938;2022-09-01T12:22:57;99258.69;;;23.93;100.00
17772;BME280;9010;32.624;-96.938;2022-09-01T12:25:30;99259.41;;;23.95;100.00
17772;BME280;9010;32.624;-96.938;2022-09-01T12:27:59;99258.22;;;23.97;100.00
17772;BME280;9010;32.624;-96.938;2022-09-01T12:30:28;99261.56;;;23.99;100.00
17772;BME280;9010;32.624;-96.938;2022-09-01T12:33:01;99257.91;;;24.00;100.00
17772;BME280;9010;32.624;-96.938;2022-09-01T12:35:30;99266.63;;;24.02;100.00
17772;BME280;9010;32.624;-96.938;2022-09-01T12:41:00;99273.69;;;24.03;100.00
17772;BME280;9010;32.624;-96.938;2022-09-01T12:43:34;99270.50;;;24.08;100.00
17772;BME280;9010;32.624;-96.938;2022-09-01T12:46:04;99273.03;;;24.10;100.00
17772;BME280;9010;32.624;-96.938;2022-09-01T12:48:35;99276.41;;;24.12;100.00
17772;BME280;9010;32.624;-96.938;2022-09-01T12:51:06;99269.69;;;24.16;100.00
17772;BME280;9010;32.624;-96.938;2022-09-01T12:53:51;99279.25;;;24.18;100.00
17772;BME280;9010;32.624;-96.938;2022-09-01T12:56:28;99277.09;;;24.22;100.00
17772;BME280;9010;32.624;-96.938;2022-09-01T12:59:07;99279.09;;;24.20;100.00
17772;BME280;9010;32.624;-96.938;2022-09-01T13:01:36;99285.81;;;24.24;100.00
17772;BME280;9010;32.624;-96.938;2022-09-01T13:04:14;99284.16;;;24.23;100.00
17772;BME280;9010;32.624;-96.938;2022-09-01T13:06:43;99286.50;;;24.26;100.00
17772;BME280;9010;32.624;-96.938;2022-09-01T13:09:11;99288.69;;;24.30;100.00
17772;BME280;9010;32.624;-96.938;2022-09-01T13:11:41;99287.38;;;24.34;100.00
17772;BME280;9010;32.624;-96.938;2022-09-01T13:14:09;99290.19;;;24.33;100.00